Time,TemperatureF,DewpointF,PressureIn,WindDirection,WindDirectionDegrees,WindSpeedMPH,WindSpeedGustMPH,Humidity,HourlyPrecipIn,Conditions,Clouds,dailyrainin,SoftwareType,DateUTC
2013-03-08 00:02:00,18.1,14.2,30.21,SSE,158,5.8,9.8,85,0.00,,,0.00,WUHU216HW,2013-03-08 06:02:00,
2013-03-08 00:07:00,17.7,13.9,30.21,South,180,1.4,6.6,85,0.00,,,0.00,WUHU216HW,2013-03-08 06:07:00,
2013-03-08 00:12:00,17.7,13.9,30.21,WSW,248,0.0,2.8,85,0.00,,,0.00,WUHU216HW,2013-03-08 06:12:00,
2013-03-08 00:17:00,17.4,13.5,30.22,WSW,248,0.0,1.4,85,0.00,,,0.00,WUHU216HW,2013-03-08 06:17:00,
2013-03-08 00:22:00,17.0,13.2,30.22,South,180,1.9,1.9,85,0.00,,,0.00,WUHU216HW,2013-03-08 06:22:00,
2013-03-08 00:27:00,17.2,13.3,30.22,South,180,2.1,2.1,85,0.00,,,0.00,WUHU216HW,2013-03-08 06:27:00,
2013-03-08 00:32:00,18.1,14.2,30.22,South,180,7.3,8.4,85,0.00,,,0.00,WUHU216HW,2013-03-08 06:32:00,
2013-03-08 00:37:00,18.8,14.9,30.22,South,180,7.1,8.4,85,0.00,,,0.00,WUHU216HW,2013-03-08 06:37:00,
2013-03-08 00:42:00,19.0,15.1,30.22,South,180,7.3,8.9,85,0.00,,,0.00,WUHU216HW,2013-03-08 06:42:00,
2013-03-08 00:47:00,19.2,15.3,30.21,South,180,7.3,10.3,85,0.00,,,0.00,WUHU216HW,2013-03-08 06:47:00,
2013-03-08 00:52:00,19.2,15.6,30.22,South,180,8.1,10.3,86,0.00,,,0.00,WUHU216HW,2013-03-08 06:52:00,
2013-03-08 00:57:00,19.2,15.6,30.22,South,180,8.9,9.8,86,0.00,,,0.00,WUHU216HW,2013-03-08 06:57:00,
2013-03-08 01:02:00,19.2,15.6,30.22,South,180,7.8,9.8,86,0.00,,,0.00,WUHU216HW,2013-03-08 07:02:00,
2013-03-08 01:07:00,19.2,15.6,30.22,South,180,8.9,8.9,86,0.00,,,0.00,WUHU216HW,2013-03-08 07:07:00,
2013-03-08 01:12:00,19.2,15.6,30.22,South,180,6.9,8.9,86,0.00,,,0.00,WUHU216HW,2013-03-08 07:12:00,
2013-03-08 01:17:00,19.0,15.4,30.22,South,180,8.4,8.9,86,0.00,,,0.00,WUHU216HW,2013-03-08 07:17:00,
2013-03-08 01:22:00,18.8,15.2,30.22,South,180,8.0,8.9,86,0.00,,,0.00,WUHU216HW,2013-03-08 07:22:00,
2013-03-08 01:27:00,18.6,15.0,30.22,South,180,5.5,8.9,86,0.00,,,0.00,WUHU216HW,2013-03-08 07:27:00,
2013-03-08 01:32:00,18.3,14.7,30.22,South,180,5.5,8.0,86,0.00,,,0.00,WUHU216HW,2013-03-08 07:32:00,
2013-03-08 01:37:00,18.3,14.7,30.22,South,180,7.8,7.8,86,0.00,,,0.00,WUHU216HW,2013-03-08 07:37:00,
2013-03-08 01:42:00,18.1,14.5,30.23,South,180,6.4,7.8,86,0.00,,,0.00,WUHU216HW,2013-03-08 07:42:00,
2013-03-08 01:47:00,17.7,13.9,30.23,South,180,2.8,7.8,85,0.00,,,0.00,WUHU216HW,2013-03-08 07:47:00,
2013-03-08 01:52:00,17.7,13.9,30.23,South,180,8.4,8.4,85,0.00,,,0.00,WUHU216HW,2013-03-08 07:52:00,
2013-03-08 01:57:00,17.7,13.9,30.22,South,180,5.3,8.4,85,0.00,,,0.00,WUHU216HW,2013-03-08 07:57:00,
2013-03-08 02:02:00,17.4,13.9,30.22,South,180,6.6,8.4,85,0.00,,,0.00,WUHU216HW,2013-03-08 08:02:00,
2013-03-08 02:07:00,17.2,13.3,30.22,SSE,158,4.4,6.6,85,0.00,,,0.00,WUHU216HW,2013-03-08 08:07:00,
2013-03-08 02:12:00,17.2,13.3,30.22,South,180,5.0,6.1,85,0.00,,,0.00,WUHU216HW,2013-03-08 08:12:00,
2013-03-08 02:17:00,17.4,13.5,30.22,South,180,5.1,5.5,85,0.00,,,0.00,WUHU216HW,2013-03-08 08:17:00,
2013-03-08 02:22:00,17.4,13.5,30.23,SSE,158,6.4,6.4,85,0.00,,,0.00,WUHU216HW,2013-03-08 08:22:00,
2013-03-08 02:27:00,17.4,13.5,30.23,SSE,158,4.4,6.4,85,0.00,,,0.00,WUHU216HW,2013-03-08 08:27:00,
2013-03-08 02:32:00,17.4,13.5,30.22,SSE,158,4.8,6.4,85,0.00,,,0.00,WUHU216HW,2013-03-08 08:32:00,
2013-03-08 02:37:00,17.4,13.5,30.22,SSE,158,3.9,6.4,85,0.00,,,0.00,WUHU216HW,2013-03-08 08:37:00,
2013-03-08 02:42:00,17.7,13.9,30.22,SSE,158,1.0,6.1,85,0.00,,,0.00,WUHU216HW,2013-03-08 08:42:00,
2013-03-08 02:47:00,17.4,13.5,30.22,SSE,158,1.6,3.9,85,0.00,,,0.00,WUHU216HW,2013-03-08 08:47:00,
2013-03-08 02:52:00,17.4,13.5,30.22,SSE,158,4.4,4.4,85,0.00,,,0.00,WUHU216HW,2013-03-08 08:52:00,
2013-03-08 02:57:00,18.1,14.5,30.22,SSE,158,2.8,4.4,86,0.00,,,0.00,WUHU216HW,2013-03-08 08:57:00,
2013-03-08 03:02:00,18.5,14.7,30.22,SSE,158,1.9,4.4,86,0.00,,,0.00,WUHU216HW,2013-03-08 09:02:00,
2013-03-08 03:07:00,18.8,15.2,30.22,SSE,158,3.3,4.1,86,0.00,,,0.00,WUHU216HW,2013-03-08 09:07:00,
2013-03-08 03:12:00,19.2,15.6,30.22,North,0,0.0,4.1,86,0.00,,,0.00,WUHU216HW,2013-03-08 09:12:00,
2013-03-08 03:17:00,19.2,15.6,30.22,West,270,0.0,3.0,86,0.00,,,0.00,WUHU216HW,2013-03-08 09:17:00,
2013-03-08 03:22:00,19.5,15.9,30.22,SSW,203,0.0,0.0,86,0.00,,,0.00,WUHU216HW,2013-03-08 09:22:00,
2013-03-08 03:27:00,20.1,16.5,30.22,South,180,4.1,4.1,86,0.00,,,0.00,WUHU216HW,2013-03-08 09:27:00,
2013-03-08 03:32:00,20.3,16.7,30.22,SSE,158,3.0,4.1,86,0.00,,,0.00,WUHU216HW,2013-03-08 09:32:00,
2013-03-08 03:37:00,20.1,16.5,30.22,SSE,158,0.0,3.0,86,0.00,,,0.00,WUHU216HW,2013-03-08 09:37:00,
2013-03-08 03:42:00,19.9,16.3,30.22,SSE,158,2.1,2.1,86,0.00,,,0.00,WUHU216HW,2013-03-08 09:42:00,
2013-03-08 03:47:00,19.9,16.3,30.22,South,180,1.9,2.8,86,0.00,,,0.00,WUHU216HW,2013-03-08 09:47:00,
2013-03-08 03:52:00,19.9,16.3,30.22,SSE,158,0.0,2.8,86,0.00,,,0.00,WUHU216HW,2013-03-08 09:52:00,
2013-03-08 03:57:00,19.9,16.0,30.22,South,180,0.0,0.0,85,0.00,,,0.00,WUHU216HW,2013-03-08 09:57:00,
2013-03-08 04:02:00,20.1,16.2,30.22,SSW,203,0.0,0.0,85,0.00,,,0.00,WUHU216HW,2013-03-08 10:02:00,
2013-03-08 04:07:00,20.1,16.2,30.22,SSE,158,0.0,0.0,85,0.00,,,0.00,WUHU216HW,2013-03-08 10:07:00,
2013-03-08 04:12:00,20.3,16.4,30.22,SSE,158,0.0,0.0,85,0.00,,,0.00,WUHU216HW,2013-03-08 10:12:00,
2013-03-08 04:17:00,20.3,16.4,30.23,SSE,158,0.8,2.5,85,0.00,,,0.00,WUHU216HW,2013-03-08 10:17:00,
2013-03-08 04:22:00,20.4,16.8,30.23,South,180,1.6,2.5,86,0.00,,,0.00,WUHU216HW,2013-03-08 10:22:00,
2013-03-08 04:27:00,20.4,16.8,30.23,South,180,0.0,1.6,86,0.00,,,0.00,WUHU216HW,2013-03-08 10:27:00,
2013-03-08 04:32:00,20.4,16.8,30.23,South,180,0.0,1.6,86,0.00,,,0.00,WUHU216HW,2013-03-08 10:32:00,
2013-03-08 04:37:00,20.4,16.8,30.23,South,180,0.0,0.0,86,0.00,,,0.00,WUHU216HW,2013-03-08 10:37:00,
2013-03-08 04:42:00,20.4,16.8,30.23,South,180,0.0,0.0,86,0.00,,,0.00,WUHU216HW,2013-03-08 10:42:00,
2013-03-08 04:47:00,20.4,16.8,30.23,South,180,0.0,0.0,86,0.00,,,0.00,WUHU216HW,2013-03-08 10:47:00,
2013-03-08 04:52:00,20.8,17.2,30.23,South,180,0.0,0.0,86,0.00,,,0.00,WUHU216HW,2013-03-08 10:52:00,
2013-03-08 04:57:00,20.8,17.2,30.23,South,180,0.0,0.0,86,0.00,,,0.00,WUHU216HW,2013-03-08 10:57:00,
2013-03-08 05:02:00,21.0,17.4,30.23,South,180,0.0,0.0,86,0.00,,,0.00,WUHU216HW,2013-03-08 11:02:00,
2013-03-08 05:07:00,21.0,17.4,30.23,South,180,0.0,0.0,86,0.00,,,0.00,WUHU216HW,2013-03-08 11:07:00,
2013-03-08 05:12:00,21.0,17.4,30.23,South,180,0.0,0.0,86,0.00,,,0.00,WUHU216HW,2013-03-08 11:12:00,
2013-03-08 05:17:00,21.2,17.6,30.23,South,180,0.0,0.0,86,0.00,,,0.00,WUHU216HW,2013-03-08 11:17:00,
2013-03-08 05:22:00,21.3,17.7,30.22,South,180,0.0,0.0,86,0.00,,,0.00,WUHU216HW,2013-03-08 11:22:00,
2013-03-08 05:27:00,21.5,17.9,30.23,South,180,0.0,0.0,86,0.00,,,0.00,WUHU216HW,2013-03-08 11:27:00,
2013-03-08 05:32:00,21.5,17.9,30.23,South,180,0.0,0.0,86,0.00,,,0.00,WUHU216HW,2013-03-08 11:32:00,
2013-03-08 05:37:00,21.7,18.1,30.23,South,180,0.0,0.0,86,0.00,,,0.00,WUHU216HW,2013-03-08 11:37:00,
2013-03-08 05:42:00,21.7,18.1,30.23,SE,135,0.0,0.0,86,0.00,,,0.00,WUHU216HW,2013-03-08 11:42:00,
2013-03-08 05:47:00,21.5,17.9,30.24,SSE,158,0.0,0.0,86,0.00,,,0.00,WUHU216HW,2013-03-08 11:47:00,
2013-03-08 05:52:00,21.5,17.9,30.24,SSE,158,0.0,0.0,86,0.00,,,0.00,WUHU216HW,2013-03-08 11:52:00,
2013-03-08 05:57:00,21.5,17.9,30.23,SSE,158,0.0,0.0,86,0.00,,,0.00,WUHU216HW,2013-03-08 11:57:00,
2013-03-08 06:02:00,21.7,18.1,30.23,SSE,158,0.0,0.0,86,0.00,,,0.00,WUHU216HW,2013-03-08 12:02:00,
2013-03-08 06:07:00,21.9,18.3,30.23,SSE,158,0.0,0.0,86,0.00,,,0.00,WUHU216HW,2013-03-08 12:07:00,
2013-03-08 06:12:00,21.9,18.3,30.23,SSE,158,0.0,0.0,86,0.00,,,0.00,WUHU216HW,2013-03-08 12:12:00,
2013-03-08 06:17:00,22.1,18.5,30.24,SSE,158,0.0,0.0,86,0.00,,,0.00,WUHU216HW,2013-03-08 12:17:00,
2013-03-08 06:22:00,22.1,18.5,30.24,SSE,158,0.0,0.0,86,0.00,,,0.00,WUHU216HW,2013-03-08 12:22:00,
2013-03-08 06:27:00,22.2,18.6,30.24,SE,135,0.0,0.0,86,0.00,,,0.00,WUHU216HW,2013-03-08 12:27:00,
2013-03-08 06:32:00,22.2,18.6,30.23,SE,135,0.0,0.0,86,0.00,,,0.00,WUHU216HW,2013-03-08 12:32:00,
2013-03-08 06:37:00,22.2,18.6,30.24,SE,135,0.0,0.0,86,0.00,,,0.00,WUHU216HW,2013-03-08 12:37:00,
2013-03-08 06:42:00,22.4,18.8,30.24,SE,135,0.0,0.0,86,0.00,,,0.00,WUHU216HW,2013-03-08 12:42:00,
2013-03-08 06:47:00,22.6,19.0,30.23,SE,135,0.0,0.0,86,0.00,,,0.00,WUHU216HW,2013-03-08 12:47:00,
2013-03-08 06:52:00,22.4,18.8,30.23,SE,135,0.0,0.0,86,0.00,,,0.00,WUHU216HW,2013-03-08 12:52:00,
2013-03-08 06:57:00,22.6,19.0,30.23,SE,135,0.0,0.0,86,0.00,,,0.00,WUHU216HW,2013-03-08 12:57:00,
2013-03-08 07:02:00,22.6,19.0,30.23,SE,135,0.0,0.0,86,0.00,,,0.00,WUHU216HW,2013-03-08 13:02:00,
2013-03-08 07:07:00,22.8,19.2,30.23,SE,135,0.0,0.0,86,0.00,,,0.00,WUHU216HW,2013-03-08 13:07:00,
2013-03-08 07:12:00,23.1,19.5,30.23,SE,135,0.0,0.0,86,0.00,,,0.00,WUHU216HW,2013-03-08 13:12:00,
2013-03-08 07:17:00,23.3,19.7,30.23,SE,135,0.0,0.0,86,0.00,,,0.00,WUHU216HW,2013-03-08 13:17:00,
2013-03-08 07:22:00,23.7,20.1,30.23,SE,135,0.0,0.0,86,0.00,,,0.00,WUHU216HW,2013-03-08 13:22:00,
2013-03-08 07:27:00,24.0,20.4,30.23,SE,135,0.0,0.0,86,0.00,,,0.00,WUHU216HW,2013-03-08 13:27:00,
2013-03-08 07:32:00,24.4,20.4,30.22,SE,135,0.0,0.0,86,0.00,,,0.00,WUHU216HW,2013-03-08 13:32:00,
2013-03-08 07:37:00,24.6,21.0,30.23,SE,135,0.0,0.0,86,0.00,,,0.00,WUHU216HW,2013-03-08 13:37:00,
2013-03-08 07:42:00,24.9,21.3,30.24,SE,135,0.0,0.0,86,0.00,,,0.00,WUHU216HW,2013-03-08 13:42:00,
2013-03-08 07:47:00,24.9,21.3,30.24,ENE,68,0.0,0.0,86,0.00,,,0.00,WUHU216HW,2013-03-08 13:47:00,
2013-03-08 07:52:00,25.3,21.7,30.24,ENE,68,0.0,0.0,86,0.00,,,0.00,WUHU216HW,2013-03-08 13:52:00,
2013-03-08 07:57:00,25.5,21.8,30.24,ENE,68,0.0,0.0,86,0.00,,,0.00,WUHU216HW,2013-03-08 13:57:00,
2013-03-08 08:02:00,26.2,22.5,30.23,ENE,68,0.0,0.0,86,0.00,,,0.00,WUHU216HW,2013-03-08 14:02:00,
2013-03-08 08:07:00,26.7,23.2,30.23,ENE,68,0.0,0.0,86,0.00,,,0.00,WUHU216HW,2013-03-08 14:07:00,
2013-03-08 08:12:00,27.5,23.4,30.24,NNE,23,0.0,0.0,86,0.00,,,0.00,WUHU216HW,2013-03-08 14:12:00,
2013-03-08 08:17:00,27.5,23.8,30.24,North,0,0.0,0.0,86,0.00,,,0.00,WUHU216HW,2013-03-08 14:17:00,
2013-03-08 08:22:00,27.3,23.1,30.24,NNE,23,0.0,0.0,85,0.00,,,0.00,WUHU216HW,2013-03-08 14:22:00,
2013-03-08 08:27:00,26.9,23.0,30.24,NNE,23,0.0,0.0,85,0.00,,,0.00,WUHU216HW,2013-03-08 14:27:00,
2013-03-08 08:32:00,26.7,22.8,30.23,NNE,23,0.0,0.0,85,0.00,,,0.00,WUHU216HW,2013-03-08 14:32:00,
2013-03-08 08:37:00,27.3,23.3,30.24,NNE,23,0.0,0.0,85,0.00,,,0.00,WUHU216HW,2013-03-08 14:37:00,
2013-03-08 08:42:00,27.6,23.7,30.24,NNE,23,0.0,0.0,85,0.00,,,0.00,WUHU216HW,2013-03-08 14:42:00,
2013-03-08 08:47:00,27.1,22.8,30.24,NNE,23,0.0,0.0,84,0.00,,,0.00,WUHU216HW,2013-03-08 14:47:00,
2013-03-08 08:52:00,27.3,23.0,30.24,NNE,23,0.0,0.0,84,0.00,,,0.00,WUHU216HW,2013-03-08 14:52:00,
2013-03-08 08:57:00,28.7,24.8,30.23,NNE,23,0.0,0.0,85,0.00,,,0.00,WUHU216HW,2013-03-08 14:57:00,
2013-03-08 09:02:00,29.1,25.1,30.24,NNE,23,0.0,0.0,85,0.00,,,0.00,WUHU216HW,2013-03-08 15:02:00,
2013-03-08 09:07:00,29.1,24.0,30.24,NNE,23,2.5,3.3,81,0.00,,,0.00,WUHU216HW,2013-03-08 15:07:00,
2013-03-08 09:12:00,29.1,24.0,30.23,NNE,23,1.9,3.3,81,0.00,,,0.00,WUHU216HW,2013-03-08 15:12:00,
2013-03-08 09:17:00,29.1,24.0,30.23,NNE,23,1.9,1.9,81,0.00,,,0.00,WUHU216HW,2013-03-08 15:17:00,
2013-03-08 09:22:00,29.8,24.7,30.24,NNE,23,1.9,1.9,81,0.00,,,0.00,WUHU216HW,2013-03-08 15:22:00,
2013-03-08 09:27:00,29.8,24.7,30.24,NNE,23,1.9,1.9,81,0.00,,,0.00,WUHU216HW,2013-03-08 15:27:00,
2013-03-08 09:32:00,29.8,24.7,30.24,NNE,23,1.9,1.9,81,0.00,,,0.00,WUHU216HW,2013-03-08 15:32:00,
2013-03-08 09:37:00,33.9,24.7,30.24,NNE,23,1.9,1.9,81,0.00,,,0.00,WUHU216HW,2013-03-08 15:37:00,
2013-03-08 09:42:00,33.6,26.4,30.24,NNE,23,1.3,2.1,75,0.00,,,0.00,WUHU216HW,2013-03-08 15:42:00,
2013-03-08 09:47:00,32.7,25.6,30.24,NNE,23,0.0,2.1,75,0.00,,,0.00,WUHU216HW,2013-03-08 15:47:00,
2013-03-08 09:52:00,33.4,26.9,30.24,NE,45,0.0,1.6,77,0.00,,,0.00,WUHU216HW,2013-03-08 15:52:00,
2013-03-08 09:57:00,34.3,26.8,30.24,NNE,23,1.0,1.0,74,0.00,,,0.00,WUHU216HW,2013-03-08 15:57:00,
2013-03-08 10:02:00,35.0,28.1,30.24,NE,45,0.0,1.0,76,0.00,,,0.00,WUHU216HW,2013-03-08 16:02:00,
2013-03-08 10:07:00,35.4,27.7,30.24,NE,45,0.0,0.0,74,0.00,,,0.00,WUHU216HW,2013-03-08 16:07:00,
2013-03-08 10:12:00,35.4,27.8,30.24,NE,45,0.0,0.0,74,0.00,,,0.00,WUHU216HW,2013-03-08 16:12:00,
2013-03-08 10:17:00,35.7,27.9,30.24,NE,45,0.0,0.0,73,0.00,,,0.00,WUHU216HW,2013-03-08 16:17:00,
2013-03-08 10:22:00,37.2,29.3,30.24,NE,45,0.0,0.0,73,0.00,,,0.00,WUHU216HW,2013-03-08 16:22:00,
2013-03-08 10:27:00,38.1,27.7,30.24,NNE,23,3.9,3.9,66,0.00,,,0.00,WUHU216HW,2013-03-08 16:27:00,
2013-03-08 10:32:00,36.6,26.7,30.24,NNE,23,0.0,3.9,67,0.00,,,0.00,WUHU216HW,2013-03-08 16:32:00,
2013-03-08 10:37:00,36.6,27.4,30.24,NE,45,0.0,3.9,69,0.00,,,0.00,WUHU216HW,2013-03-08 16:37:00,
2013-03-08 10:42:00,37.9,28.6,30.24,NE,45,0.0,0.0,69,0.00,,,0.00,WUHU216HW,2013-03-08 16:42:00,
2013-03-08 10:47:00,38.1,28.4,30.23,NE,45,0.0,0.0,68,0.00,,,0.00,WUHU216HW,2013-03-08 16:47:00,
2013-03-08 10:52:00,37.9,28.3,30.23,NE,45,0.0,0.0,68,0.00,,,0.00,WUHU216HW,2013-03-08 16:52:00,
2013-03-08 10:57:00,38.3,28.6,30.23,ENE,68,0.0,0.0,68,0.00,,,0.00,WUHU216HW,2013-03-08 16:57:00,
2013-03-08 11:02:00,38.3,28.2,30.23,ENE,68,0.0,0.0,67,0.00,,,0.00,WUHU216HW,2013-03-08 17:02:00,
2013-03-08 11:07:00,38.3,28.2,30.23,ENE,68,0.0,0.0,67,0.00,,,0.00,WUHU216HW,2013-03-08 17:07:00,
2013-03-08 11:12:00,38.3,27.1,30.23,ENE,68,0.0,0.0,64,0.00,,,0.00,WUHU216HW,2013-03-08 17:12:00,
2013-03-08 11:17:00,40.6,29.3,30.22,ENE,68,0.0,0.0,64,0.00,,,0.00,WUHU216HW,2013-03-08 17:17:00,
2013-03-08 11:22:00,40.6,28.6,30.23,ENE,68,0.0,0.0,62,0.00,,,0.00,WUHU216HW,2013-03-08 17:22:00,
2013-03-08 11:27:00,41.1,28.7,30.23,ENE,68,0.0,0.0,61,0.00,,,0.00,WUHU216HW,2013-03-08 17:27:00,
2013-03-08 11:32:00,40.4,28.4,30.22,ENE,68,0.0,1.6,62,0.00,,,0.00,WUHU216HW,2013-03-08 17:32:00,
2013-03-08 11:37:00,39.7,27.3,30.22,NE,45,0.8,3.3,61,0.00,,,0.00,WUHU216HW,2013-03-08 17:37:00,
2013-03-08 11:42:00,40.4,28.4,30.22,ENE,68,1.6,3.3,62,0.00,,,0.00,WUHU216HW,2013-03-08 17:42:00,
2013-03-08 11:47:00,41.1,28.7,30.22,NE,45,0.0,1.6,61,0.00,,,0.00,WUHU216HW,2013-03-08 17:47:00,
2013-03-08 11:52:00,41.7,28.4,30.22,ENE,68,0.0,1.0,59,0.00,,,0.00,WUHU216HW,2013-03-08 17:52:00,
2013-03-08 11:57:00,41.3,28.0,30.22,ENE,68,3.6,3.6,59,0.00,,,0.00,WUHU216HW,2013-03-08 17:57:00,
2013-03-08 12:02:00,40.6,27.8,30.22,ENE,68,0.0,3.6,60,0.00,,,0.00,WUHU216HW,2013-03-08 18:02:00,
2013-03-08 12:07:00,39.9,27.1,30.21,NE,45,3.9,3.9,60,0.00,,,0.00,WUHU216HW,2013-03-08 18:07:00,
2013-03-08 12:12:00,39.3,26.6,30.22,ENE,68,2.0,3.9,60,0.00,,,0.00,WUHU216HW,2013-03-08 18:12:00,
2013-03-08 12:17:00,39.0,26.2,30.22,ENE,68,0.8,3.9,60,0.00,,,0.00,WUHU216HW,2013-03-08 18:17:00,
2013-03-08 12:22:00,38.1,26.2,30.22,ENE,68,3.9,4.8,62,0.00,,,0.00,WUHU216HW,2013-03-08 18:22:00,
2013-03-08 12:27:00,38.4,26.9,30.21,NE,45,6.4,6.4,63,0.00,,,0.00,WUHU216HW,2013-03-08 18:27:00,
2013-03-08 12:32:00,38.3,26.3,30.21,ENE,68,3.9,6.4,62,0.00,,,0.00,WUHU216HW,2013-03-08 18:32:00,
2013-03-08 12:37:00,37.5,26.0,30.21,NE,45,1.0,6.4,63,0.00,,,0.00,WUHU216HW,2013-03-08 18:37:00,
2013-03-08 12:42:00,37.4,25.9,30.21,ENE,78,1.8,3.6,63,0.00,,,0.00,WUHU216HW,2013-03-08 18:42:00,
2013-03-08 12:47:00,37.0,25.5,30.21,ENE,68,0.0,6.9,63,0.00,,,0.00,WUHU216HW,2013-03-08 18:47:00,
2013-03-08 12:52:00,36.5,25.4,30.21,ENE,57,5.7,6.9,64,0.00,,,0.00,WUHU216HW,2013-03-08 18:52:00,
2013-03-08 12:57:00,35.9,25.3,30.21,NE,45,5.0,6.1,65,0.00,,,0.00,WUHU216HW,2013-03-08 18:57:00,
2013-03-08 13:02:00,35.9,25.3,30.21,NE,45,0.0,8.0,65,0.00,,,0.00,WUHU216HW,2013-03-08 19:02:00,
2013-03-08 13:07:00,35.4,25.1,30.21,ENE,68,3.4,8.0,66,0.00,,,0.00,WUHU216HW,2013-03-08 19:07:00,
2013-03-08 13:12:00,35.2,25.3,30.21,ENE,68,3.6,3.6,67,0.00,,,0.00,WUHU216HW,2013-03-08 19:12:00,
2013-03-08 13:17:00,36.6,26.7,30.21,ENE,68,3.6,3.6,67,0.00,,,0.00,WUHU216HW,2013-03-08 19:17:00,
2013-03-08 13:22:00,37.7,26.7,30.21,NE,45,6.4,6.4,64,0.00,,,0.00,WUHU216HW,2013-03-08 19:22:00,
2013-03-08 13:27:00,38.3,26.7,30.21,East,90,2.8,6.4,63,0.00,,,0.00,WUHU216HW,2013-03-08 19:27:00,
2013-03-08 13:32:00,38.4,26.9,30.21,NE,45,5.8,6.6,63,0.00,,,0.00,WUHU216HW,2013-03-08 19:32:00,
2013-03-08 13:37:00,38.3,26.7,30.21,NE,52,3.6,6.6,63,0.00,,,0.00,WUHU216HW,2013-03-08 19:37:00,
2013-03-08 13:42:00,38.1,26.5,30.20,ENE,68,6.9,6.9,63,0.00,,,0.00,WUHU216HW,2013-03-08 19:42:00,
2013-03-08 13:47:00,37.9,26.4,30.20,ENE,68,0.0,6.9,63,0.00,,,0.00,WUHU216HW,2013-03-08 19:47:00,
2013-03-08 13:52:00,38.4,26.5,30.20,ENE,68,6.1,6.9,62,0.00,,,0.00,WUHU216HW,2013-03-08 19:52:00,
2013-03-08 13:57:00,37.7,26.2,30.20,ENE,58,5.7,6.4,63,0.00,,,0.00,WUHU216HW,2013-03-08 19:57:00,
2013-03-08 14:02:00,38.3,26.7,30.19,NE,45,3.9,6.4,63,0.00,,,0.00,WUHU216HW,2013-03-08 20:02:00,
2013-03-08 14:07:00,38.4,26.9,30.19,NE,45,4.4,5.0,63,0.00,,,0.00,WUHU216HW,2013-03-08 20:07:00,
2013-03-08 14:12:00,38.4,26.9,30.19,ENE,68,8.6,8.6,63,0.00,,,0.00,WUHU216HW,2013-03-08 20:12:00,
2013-03-08 14:17:00,37.5,25.7,30.19,ENE,68,5.8,8.6,62,0.00,,,0.00,WUHU216HW,2013-03-08 20:17:00,
2013-03-08 14:22:00,36.3,25.6,30.19,ENE,61,5.7,8.6,65,0.00,,,0.00,WUHU216HW,2013-03-08 20:22:00,
2013-03-08 14:27:00,36.1,25.4,30.19,ENE,68,4.8,7.8,65,0.00,,,0.00,WUHU216HW,2013-03-08 20:27:00,
2013-03-08 14:32:00,35.7,25.1,30.19,East,90,6.1,6.9,65,0.00,,,0.00,WUHU216HW,2013-03-08 20:32:00,
2013-03-08 14:37:00,35.4,25.1,30.19,ENE,68,5.5,6.1,66,0.00,,,0.00,WUHU216HW,2013-03-08 20:37:00,
2013-03-08 14:42:00,35.4,25.1,30.19,East,90,4.1,5.5,66,0.00,,,0.00,WUHU216HW,2013-03-08 20:42:00,
2013-03-08 14:47:00,35.4,25.1,30.19,ENE,68,5.3,6.4,66,0.00,,,0.00,WUHU216HW,2013-03-08 20:47:00,
2013-03-08 14:52:00,34.8,24.9,30.19,ENE,76,5.6,7.8,67,0.00,,,0.00,WUHU216HW,2013-03-08 20:52:00,
2013-03-08 14:57:00,34.7,24.8,30.19,East,90,6.4,7.8,67,0.00,,,0.00,WUHU216HW,2013-03-08 20:57:00,
2013-03-08 15:02:00,34.3,24.4,30.19,ENE,68,6.6,8.6,67,0.00,,,0.00,WUHU216HW,2013-03-08 21:02:00,
2013-03-08 15:07:00,34.1,24.9,30.19,East,90,6.6,8.6,69,0.00,,,0.00,WUHU216HW,2013-03-08 21:07:00,
2013-03-08 15:12:00,33.8,24.6,30.19,East,90,10.0,10.0,68,0.00,,,0.00,WUHU216HW,2013-03-08 21:12:00,
2013-03-08 15:17:00,33.0,23.9,30.19,ENE,68,4.4,10.0,69,0.00,,,0.00,WUHU216HW,2013-03-08 21:17:00,
2013-03-08 15:22:00,32.3,24.0,30.18,ENE,68,8.0,10.0,71,0.00,,,0.00,WUHU216HW,2013-03-08 21:22:00,
2013-03-08 15:27:00,32.1,23.8,30.18,ENE,68,5.6,8.0,71,0.00,,,0.00,WUHU216HW,2013-03-08 21:27:00,
2013-03-08 15:32:00,32.1,24.1,30.18,ENE,68,2.5,8.0,72,0.00,,,0.00,WUHU216HW,2013-03-08 21:32:00,
2013-03-08 15:37:00,31.8,23.8,30.18,East,90,8.4,8.4,72,0.00,,,0.00,WUHU216HW,2013-03-08 21:37:00,
2013-03-08 15:42:00,31.8,23.8,30.18,ENE,68,5.0,8.4,72,0.00,,,0.00,WUHU216HW,2013-03-08 21:42:00,
2013-03-08 15:47:00,32.1,24.1,30.17,ENE,68,0.0,8.4,72,0.00,,,0.00,WUHU216HW,2013-03-08 21:47:00,
2013-03-08 15:52:00,32.7,24.6,30.17,ENE,78,7.6,8.4,72,0.00,,,0.00,WUHU216HW,2013-03-08 21:52:00,
2013-03-08 15:57:00,32.1,23.8,30.16,ENE,68,3.9,8.4,71,0.00,,,0.00,WUHU216HW,2013-03-08 21:57:00,
2013-03-08 16:02:00,31.6,23.6,30.16,NE,45,10.6,10.6,72,0.00,,,0.00,WUHU216HW,2013-03-08 22:02:00,
2013-03-08 16:07:00,30.0,22.6,30.16,ENE,58,7.5,10.6,74,0.00,,,0.00,WUHU216HW,2013-03-08 22:07:00,
2013-03-08 16:12:00,29.3,22.3,30.16,ENE,68,10.0,10.0,75,0.00,,,0.00,WUHU216HW,2013-03-08 22:12:00,
2013-03-08 16:17:00,28.7,22.1,30.15,NE,45,13.6,13.6,76,0.00,,,0.00,WUHU216HW,2013-03-08 22:17:00,
2013-03-08 16:22:00,28.0,21.7,30.15,ENE,68,8.3,13.6,77,0.00,,,0.00,WUHU216HW,2013-03-08 22:22:00,
2013-03-08 16:27:00,27.6,21.6,30.15,ENE,68,6.9,10.0,78,0.00,,,0.00,WUHU216HW,2013-03-08 22:27:00,
2013-03-08 16:32:00,27.5,21.7,30.14,NE,45,7.5,10.0,79,0.00,,,0.00,WUHU216HW,2013-03-08 22:32:00,
2013-03-08 16:37:00,27.3,21.6,30.14,ENE,68,5.9,10.6,79,0.00,,,0.00,WUHU216HW,2013-03-08 22:37:00,
2013-03-08 16:42:00,27.5,21.7,30.14,ENE,68,3.3,10.6,79,0.00,,,0.00,WUHU216HW,2013-03-08 22:42:00,
2013-03-08 16:47:00,27.6,21.9,30.14,ENE,68,8.4,8.9,79,0.00,,,0.00,WUHU216HW,2013-03-08 22:47:00,
2013-03-08 16:52:00,27.6,21.9,30.15,ENE,68,11.4,11.4,79,0.00,,,0.00,WUHU216HW,2013-03-08 22:52:00,
2013-03-08 16:57:00,27.3,21.6,30.15,East,90,8.9,11.4,79,0.00,,,0.00,WUHU216HW,2013-03-08 22:57:00,
2013-03-08 17:03:00,27.3,21.6,30.14,ENE,68,6.4,11.4,79,0.00,,,0.00,WUHU216HW,2013-03-08 23:03:00,
2013-03-08 17:08:00,27.5,21.7,30.14,ENE,68,13.4,13.4,79,0.00,,,0.00,WUHU216HW,2013-03-08 23:08:00,
2013-03-08 17:13:00,27.3,21.6,30.14,East,90,8.0,13.4,79,0.00,,,0.00,WUHU216HW,2013-03-08 23:13:00,
2013-03-08 17:18:00,26.7,21.3,30.14,East,90,5.3,8.6,80,0.00,,,0.00,WUHU216HW,2013-03-08 23:18:00,
2013-03-08 17:23:00,26.4,21.0,30.13,ENE,68,3.6,6.9,80,0.00,,,0.00,WUHU216HW,2013-03-08 23:23:00,
2013-03-08 17:28:00,26.4,21.0,30.13,ENE,68,10.9,10.9,80,0.00,,,0.00,WUHU216HW,2013-03-08 23:28:00,
2013-03-08 17:33:00,26.2,20.8,30.12,NE,45,6.2,10.9,80,0.00,,,0.00,WUHU216HW,2013-03-08 23:33:00,
2013-03-08 17:38:00,25.5,20.4,30.12,ENE,68,6.9,7.3,81,0.00,,,0.00,WUHU216HW,2013-03-08 23:38:00,
2013-03-08 17:43:00,25.1,20.1,30.12,ENE,68,4.4,6.9,81,0.00,,,0.00,WUHU216HW,2013-03-08 23:43:00,
2013-03-08 17:48:00,24.4,19.7,30.12,ENE,68,10.9,10.9,82,0.00,,,0.00,WUHU216HW,2013-03-08 23:48:00,
2013-03-08 17:53:00,23.7,19.3,30.11,ENE,68,6.1,10.9,83,0.00,,,0.00,WUHU216HW,2013-03-08 23:53:00,
2013-03-08 17:58:00,23.3,18.9,30.11,ENE,68,7.8,10.9,83,0.00,,,0.00,WUHU216HW,2013-03-08 23:58:00,
2013-03-08 18:03:00,22.8,18.6,30.11,East,81,7.4,10.9,84,0.00,,,0.00,WUHU216HW,2013-03-09 00:03:00,
2013-03-08 18:08:00,22.8,18.6,30.11,ENE,68,6.4,9.5,84,0.00,,,0.00,WUHU216HW,2013-03-09 00:08:00,
2013-03-08 18:13:00,22.8,18.6,30.11,ENE,68,10.9,10.9,84,0.00,,,0.00,WUHU216HW,2013-03-09 00:13:00,
2013-03-08 18:18:00,22.4,18.5,30.12,ENE,68,7.3,10.9,85,0.00,,,0.00,WUHU216HW,2013-03-09 00:18:00,
2013-03-08 18:23:00,22.4,18.5,30.11,East,90,7.5,8.4,85,0.00,,,0.00,WUHU216HW,2013-03-09 00:23:00,
2013-03-08 18:28:00,22.2,18.6,30.12,East,90,6.6,8.4,86,0.00,,,0.00,WUHU216HW,2013-03-09 00:28:00,
2013-03-08 18:33:00,22.2,18.6,30.11,East,80,7.9,8.6,86,0.00,,,0.00,WUHU216HW,2013-03-09 00:33:00,
2013-03-08 18:38:00,22.2,18.6,30.10,East,90,6.6,8.9,86,0.00,,,0.00,WUHU216HW,2013-03-09 00:38:00,
2013-03-08 18:43:00,22.1,18.5,30.11,East,90,7.5,8.9,86,0.00,,,0.00,WUHU216HW,2013-03-09 00:43:00,
2013-03-08 18:48:00,22.4,18.8,30.11,East,90,7.3,8.4,86,0.00,,,0.00,WUHU216HW,2013-03-09 00:48:00,
2013-03-08 18:53:00,22.4,18.8,30.11,East,90,5.8,8.4,86,0.00,,,0.00,WUHU216HW,2013-03-09 00:53:00,
2013-03-08 18:58:00,22.6,19.0,30.11,East,90,5.3,7.8,86,0.00,,,0.00,WUHU216HW,2013-03-09 00:58:00,
2013-03-08 19:03:00,22.6,19.0,30.11,East,90,6.5,7.3,86,0.00,,,0.00,WUHU216HW,2013-03-09 01:03:00,
2013-03-08 19:08:00,22.6,19.0,30.10,East,90,4.4,7.3,86,0.00,,,0.00,WUHU216HW,2013-03-09 01:08:00,
2013-03-08 19:13:00,22.6,19.0,30.10,East,90,5.0,6.1,86,0.00,,,0.00,WUHU216HW,2013-03-09 01:13:00,
2013-03-08 19:18:00,22.4,18.8,30.10,East,84,5.3,7.8,86,0.00,,,0.00,WUHU216HW,2013-03-09 01:18:00,
2013-03-08 19:23:00,22.6,19.0,30.10,ESE,113,8.0,8.0,86,0.00,,,0.00,WUHU216HW,2013-03-09 01:23:00,
2013-03-08 19:28:00,22.8,19.4,30.09,ENE,68,11.4,11.4,87,0.00,,,0.00,WUHU216HW,2013-03-09 01:28:00,
2013-03-08 19:33:00,23.0,19.6,30.09,ESE,113,10.6,11.4,87,0.00,,,0.00,WUHU216HW,2013-03-09 01:33:00,
2013-03-08 19:38:00,23.0,19.6,30.09,East,90,11.4,11.4,87,0.00,,,0.00,WUHU216HW,2013-03-09 01:38:00,
2013-03-08 19:43:00,23.0,19.6,30.09,East,90,8.0,11.4,87,0.00,,,0.00,WUHU216HW,2013-03-09 01:43:00,
2013-03-08 19:48:00,23.1,19.8,30.09,ESE,113,6.9,8.4,87,0.00,,,0.00,WUHU216HW,2013-03-09 01:48:00,
2013-03-08 19:53:00,23.3,20.0,30.09,ESE,113,8.0,8.4,87,0.00,,,0.00,WUHU216HW,2013-03-09 01:53:00,
2013-03-08 19:58:00,23.5,20.2,30.09,East,90,8.0,8.4,87,0.00,,,0.00,WUHU216HW,2013-03-09 01:58:00,
2013-03-08 20:03:00,23.7,20.3,30.08,ENE,68,10.3,10.3,87,0.00,,,0.00,WUHU216HW,2013-03-09 02:03:00,
2013-03-08 20:08:00,24.0,20.7,30.08,East,90,14.3,14.3,87,0.00,,,0.00,WUHU216HW,2013-03-09 02:08:00,
2013-03-08 20:13:00,24.0,20.7,30.07,East,90,11.6,14.3,87,0.00,,,0.00,WUHU216HW,2013-03-09 02:13:00,
2013-03-08 20:18:00,24.4,20.8,30.07,ESE,113,15.4,15.4,86,0.00,,,0.00,WUHU216HW,2013-03-09 02:18:00,
2013-03-08 20:23:00,24.4,20.8,30.07,East,90,16.1,16.1,86,0.00,,,0.00,WUHU216HW,2013-03-09 02:23:00,
2013-03-08 20:28:00,24.4,20.8,30.07,East,90,15.6,16.1,86,0.00,,,0.00,WUHU216HW,2013-03-09 02:28:00,
2013-03-08 20:33:00,24.4,20.8,30.07,East,90,19.5,19.5,86,0.00,,,0.00,WUHU216HW,2013-03-09 02:33:00,
2013-03-08 20:38:00,24.4,20.8,30.07,East,90,14.8,19.5,86,0.00,,,0.00,WUHU216HW,2013-03-09 02:38:00,
2013-03-08 20:43:00,24.4,20.8,30.07,East,90,16.1,19.5,86,0.00,,,0.00,WUHU216HW,2013-03-09 02:43:00,
2013-03-08 20:48:00,24.6,21.0,30.07,ENE,68,18.6,18.6,86,0.00,,,0.00,WUHU216HW,2013-03-09 02:48:00,
2013-03-08 20:53:00,24.9,21.3,30.06,East,90,19.5,19.5,86,0.00,,,0.00,WUHU216HW,2013-03-09 02:53:00,
2013-03-08 20:58:00,25.5,22.1,30.06,ESE,113,17.3,19.5,87,0.00,,,0.00,WUHU216HW,2013-03-09 02:58:00,
2013-03-08 21:03:00,26.0,22.6,30.06,East,90,22.3,22.3,87,0.00,,,0.00,WUHU216HW,2013-03-09 03:03:00,
2013-03-08 21:08:00,26.6,23.2,30.06,ENE,68,18.4,24.0,87,0.00,,,0.00,WUHU216HW,2013-03-09 03:08:00,
2013-03-08 21:13:00,26.9,23.5,30.06,ESE,113,19.8,24.0,87,0.00,,,0.00,WUHU216HW,2013-03-09 03:13:00,
2013-03-08 21:18:00,26.7,23.3,30.05,East,90,21.2,22.6,87,0.00,,,0.00,WUHU216HW,2013-03-09 03:18:00,
2013-03-08 21:23:00,26.6,22.9,30.05,East,90,20.1,22.6,86,0.00,,,0.00,WUHU216HW,2013-03-09 03:23:00,
2013-03-08 21:28:00,26.4,22.7,30.05,East,90,15.4,21.3,86,0.00,,,0.00,WUHU216HW,2013-03-09 03:28:00,
2013-03-08 21:33:00,26.4,22.7,30.05,East,90,14.3,21.3,86,0.00,,,0.00,WUHU216HW,2013-03-09 03:33:00,
2013-03-08 21:38:00,26.4,22.7,30.05,ENE,68,0.0,21.3,86,0.00,,,0.00,WUHU216HW,2013-03-09 03:38:00,
2013-03-08 21:43:00,26.4,22.7,30.06,ESE,113,6.6,12.3,86,0.00,,,0.00,WUHU216HW,2013-03-09 03:43:00,
2013-03-08 21:48:00,26.6,22.9,30.06,ESE,102,12.1,12.8,86,0.00,,,0.00,WUHU216HW,2013-03-09 03:48:00,
2013-03-08 21:53:00,26.6,22.9,30.06,ESE,113,8.6,12.8,86,0.00,,,0.00,WUHU216HW,2013-03-09 03:53:00,
2013-03-08 21:58:00,26.4,22.7,30.06,ESE,113,7.5,11.4,86,0.00,,,0.00,WUHU216HW,2013-03-09 03:58:00,
2013-03-08 22:03:00,26.4,22.7,30.07,ESE,113,8.4,8.9,86,0.00,,,0.00,WUHU216HW,2013-03-09 04:03:00,
2013-03-08 22:08:00,26.4,22.7,30.07,East,90,9.1,9.5,86,0.00,,,0.00,WUHU216HW,2013-03-09 04:08:00,
2013-03-08 22:13:00,26.2,22.5,30.07,East,90,5.8,9.5,86,0.00,,,0.00,WUHU216HW,2013-03-09 04:13:00,
2013-03-08 22:18:00,26.2,22.5,30.07,East,90,6.9,9.5,86,0.00,,,0.00,WUHU216HW,2013-03-09 04:18:00,
2013-03-08 22:23:00,26.7,23.1,30.07,East,90,1.4,6.9,86,0.00,,,0.00,WUHU216HW,2013-03-09 04:23:00,
2013-03-08 22:28:00,27.1,23.7,30.07,East,90,6.1,6.9,87,0.00,,,0.00,WUHU216HW,2013-03-09 04:28:00,
2013-03-08 22:33:00,27.5,24.1,30.08,East,90,3.9,6.1,87,0.00,,,0.00,WUHU216HW,2013-03-09 04:33:00,
2013-03-08 22:38:00,27.6,24.2,30.07,East,90,0.0,3.9,87,0.00,,,0.00,WUHU216HW,2013-03-09 04:38:00,
2013-03-08 22:43:00,27.5,24.1,30.07,East,90,0.0,3.9,87,0.00,,,0.00,WUHU216HW,2013-03-09 04:43:00,
2013-03-08 22:48:00,27.5,24.1,30.07,East,90,0.0,0.0,87,0.00,,,0.00,WUHU216HW,2013-03-09 04:48:00,
2013-03-08 22:53:00,27.5,24.1,30.06,East,90,2.8,4.4,87,0.00,,,0.00,WUHU216HW,2013-03-09 04:53:00,
2013-03-08 22:58:00,27.6,24.2,30.06,East,90,1.0,4.4,87,0.00,,,0.00,WUHU216HW,2013-03-09 04:58:00,
2013-03-08 23:00:00,27.6,24.2,30.06,East,90,2.8,4.4,87,0.00,,,0.00,WUHU216HW,2013-03-09 05:00:00,
2013-03-08 23:05:00,28.0,24.6,30.06,East,90,7.5,7.5,87,0.00,,,0.00,WUHU216HW,2013-03-09 05:05:00,
2013-03-08 23:10:00,28.2,24.8,30.04,East,90,8.4,8.4,87,0.00,,,0.00,WUHU216HW,2013-03-09 05:10:00,
2013-03-08 23:15:00,28.2,24.8,30.03,East,90,10.3,10.6,87,0.00,,,0.00,WUHU216HW,2013-03-09 05:15:00,
2013-03-08 23:20:00,28.4,25.0,30.03,East,90,12.3,12.5,87,0.00,,,0.00,WUHU216HW,2013-03-09 05:20:00,
2013-03-08 23:25:00,28.2,24.8,30.03,ESE,113,6.6,12.5,87,0.00,,,0.00,WUHU216HW,2013-03-09 05:25:00,
2013-03-08 23:30:00,28.0,24.3,30.04,East,90,1.4,12.5,86,0.00,,,0.00,WUHU216HW,2013-03-09 05:30:00,
2013-03-08 23:35:00,28.0,24.3,30.04,East,90,2.5,6.6,86,0.00,,,0.00,WUHU216HW,2013-03-09 05:35:00,
2013-03-08 23:40:00,28.0,24.6,30.03,East,90,1.4,5.5,87,0.00,,,0.00,WUHU216HW,2013-03-09 05:40:00,
2013-03-08 23:45:00,28.2,24.8,30.03,East,90,8.4,8.4,87,0.00,,,0.00,WUHU216HW,2013-03-09 05:45:00,
2013-03-08 23:50:00,28.2,24.8,30.03,East,90,6.8,8.4,87,0.00,,,0.00,WUHU216HW,2013-03-09 05:50:00,
2013-03-08 23:55:00,28.4,25.0,30.03,ESE,113,7.3,7.8,87,0.00,,,0.00,WUHU216HW,2013-03-09 05:55:00,